Sweeney, South Dakota
Current Conditions -  °F | °C
As of 9:53 AM on Friday 21 Nov 2014 (Local Time) from KPIR Reporting Station
Clear Clear  
Wind Chill: 12°   Ceiling: Unl
Heat Index: 21°   Visibility: 10mi
Dew Point: 16°   Wind: 7mph
Humidity: 81%   Direction: 240°WSW
Pressure: 29.85"   Gusts: NA
Location:  43.909°N, 100.128°W
Report Text: KPIR 211553Z AUTO 24006KT 10SM CLR M06/M09 A2985 RMK AO2 SLP136 T10611089
Loading
Personal Weather Stations






























Interactive Weather Map New forecast layout! Learn more

10-Day Weather Forecast

Advertisements
Track Severe Weather on mobile